sensor_id;sensor_type;location;lat;lon;timestamp;temperature;humidity
20528;DHT22;23612;50.894;10.700;2024-03-22T00:01:45;5.10;99.90
20528;DHT22;23612;50.894;10.700;2024-03-22T00:04:12;5.20;99.90
20528;DHT22;23612;50.894;10.700;2024-03-22T00:06:38;5.30;99.90
20528;DHT22;23612;50.894;10.700;2024-03-22T00:09:04;5.40;99.90
20528;DHT22;23612;50.894;10.700;2024-03-22T00:11:29;5.50;99.90
20528;DHT22;23612;50.894;10.700;2024-03-22T00:13:55;5.60;99.90
20528;DHT22;23612;50.894;10.700;2024-03-22T00:16:20;5.70;99.90
20528;DHT22;23612;50.894;10.700;2024-03-22T00:18:46;5.80;99.90
20528;DHT22;23612;50.894;10.700;2024-03-22T00:21:11;5.80;99.90
20528;DHT22;23612;50.894;10.700;2024-03-22T00:23:37;5.80;99.90
20528;DHT22;23612;50.894;10.700;2024-03-22T00:26:02;5.80;99.90
20528;DHT22;23612;50.894;10.700;2024-03-22T00:28:28;5.60;99.90
20528;DHT22;23612;50.894;10.700;2024-03-22T00:30:53;5.60;99.90
20528;DHT22;23612;50.894;10.700;2024-03-22T00:33:19;5.50;99.90
20528;DHT22;23612;50.894;10.700;2024-03-22T00:35:44;5.50;99.90
20528;DHT22;23612;50.894;10.700;2024-03-22T00:38:10;5.50;99.90
20528;DHT22;23612;50.894;10.700;2024-03-22T00:40:35;5.50;99.90
20528;DHT22;23612;50.894;10.700;2024-03-22T00:43:01;5.50;99.90
20528;DHT22;23612;50.894;10.700;2024-03-22T00:45:26;5.50;99.90
20528;DHT22;23612;50.894;10.700;2024-03-22T00:47:52;5.50;99.90
20528;DHT22;23612;50.894;10.700;2024-03-22T00:50:17;5.50;99.90
20528;DHT22;23612;50.894;10.700;2024-03-22T00:52:43;5.50;99.90
20528;DHT22;23612;50.894;10.700;2024-03-22T00:55:08;5.50;99.90
20528;DHT22;23612;50.894;10.700;2024-03-22T00:57:33;5.50;99.90
20528;DHT22;23612;50.894;10.700;2024-03-22T00:59:59;5.60;99.90
20528;DHT22;23612;50.894;10.700;2024-03-22T01:02:24;5.60;99.90
20528;DHT22;23612;50.894;10.700;2024-03-22T01:04:50;5.60;99.90
20528;DHT22;23612;50.894;10.700;2024-03-22T01:07:15;5.60;99.90
20528;DHT22;23612;50.894;10.700;2024-03-22T01:09:41;5.60;99.90
20528;DHT22;23612;50.894;10.700;2024-03-22T01:12:09;5.60;99.90
20528;DHT22;23612;50.894;10.700;2024-03-22T01:14:35;5.70;99.90
20528;DHT22;23612;50.894;10.700;2024-03-22T01:17:01;5.70;99.90
20528;DHT22;23612;50.894;10.700;2024-03-22T01:19:26;5.80;99.90
20528;DHT22;23612;50.894;10.700;2024-03-22T01:21:52;5.90;99.90
20528;DHT22;23612;50.894;10.700;2024-03-22T01:24:17;5.90;99.90
20528;DHT22;23612;50.894;10.700;2024-03-22T01:26:43;6.00;99.90
20528;DHT22;23612;50.894;10.700;2024-03-22T01:29:08;6.00;99.90
20528;DHT22;23612;50.894;10.700;2024-03-22T01:31:34;6.00;99.90
20528;DHT22;23612;50.894;10.700;2024-03-22T01:33:59;6.10;99.90
20528;DHT22;23612;50.894;10.700;2024-03-22T01:36:24;6.10;99.90
20528;DHT22;23612;50.894;10.700;2024-03-22T01:38:50;6.10;99.90
20528;DHT22;23612;50.894;10.700;2024-03-22T01:41:15;6.20;99.90
20528;DHT22;23612;50.894;10.700;2024-03-22T01:43:41;6.20;99.90
20528;DHT22;23612;50.894;10.700;2024-03-22T01:46:07;6.30;99.90
20528;DHT22;23612;50.894;10.700;2024-03-22T01:48:34;6.40;99.90
20528;DHT22;23612;50.894;10.700;2024-03-22T01:50:59;6.50;99.90
20528;DHT22;23612;50.894;10.700;2024-03-22T01:53:25;6.50;99.90
20528;DHT22;23612;50.894;10.700;2024-03-22T01:55:51;6.60;99.90
20528;DHT22;23612;50.894;10.700;2024-03-22T01:58:16;6.60;99.90
20528;DHT22;23612;50.894;10.700;2024-03-22T02:00:43;6.70;99.90
20528;DHT22;23612;50.894;10.700;2024-03-22T02:03:08;6.70;99.90
20528;DHT22;23612;50.894;10.700;2024-03-22T02:05:34;6.70;99.90
20528;DHT22;23612;50.894;10.700;2024-03-22T02:07:59;6.60;99.90
20528;DHT22;23612;50.894;10.700;2024-03-22T02:10:25;6.60;99.90
20528;DHT22;23612;50.894;10.700;2024-03-22T02:12:51;6.60;99.90
20528;DHT22;23612;50.894;10.700;2024-03-22T02:15:16;6.50;99.90
20528;DHT22;23612;50.894;10.700;2024-03-22T02:17:42;6.50;99.90
20528;DHT22;23612;50.894;10.700;2024-03-22T02:20:07;6.50;99.90
20528;DHT22;23612;50.894;10.700;2024-03-22T02:22:33;6.60;99.90
20528;DHT22;23612;50.894;10.700;2024-03-22T02:24:59;6.60;99.90
20528;DHT22;23612;50.894;10.700;2024-03-22T02:27:25;6.70;99.90
20528;DHT22;23612;50.894;10.700;2024-03-22T02:29:51;6.70;99.90
20528;DHT22;23612;50.894;10.700;2024-03-22T02:32:16;6.80;99.90
20528;DHT22;23612;50.894;10.700;2024-03-22T02:34:41;6.80;99.90
20528;DHT22;23612;50.894;10.700;2024-03-22T02:37:07;6.90;99.90
20528;DHT22;23612;50.894;10.700;2024-03-22T02:39:32;6.90;99.90
20528;DHT22;23612;50.894;10.700;2024-03-22T02:41:58;7.00;99.90
20528;DHT22;23612;50.894;10.700;2024-03-22T02:44:23;7.10;99.90
20528;DHT22;23612;50.894;10.700;2024-03-22T02:46:49;7.10;99.90
20528;DHT22;23612;50.894;10.700;2024-03-22T02:49:14;7.10;99.90
20528;DHT22;23612;50.894;10.700;2024-03-22T02:51:40;7.10;99.90
20528;DHT22;23612;50.894;10.700;2024-03-22T02:54:05;7.10;99.90
20528;DHT22;23612;50.894;10.700;2024-03-22T02:56:31;7.10;99.90
20528;DHT22;23612;50.894;10.700;2024-03-22T02:58:56;7.10;99.90
20528;DHT22;23612;50.894;10.700;2024-03-22T03:01:22;7.10;99.90
20528;DHT22;23612;50.894;10.700;2024-03-22T03:03:47;7.10;99.90
20528;DHT22;23612;50.894;10.700;2024-03-22T03:06:13;7.10;99.90
20528;DHT22;23612;50.894;10.700;2024-03-22T03:08:39;7.10;99.90
20528;DHT22;23612;50.894;10.700;2024-03-22T03:11:04;7.00;99.90
20528;DHT22;23612;50.894;10.700;2024-03-22T03:13:30;7.00;99.90
20528;DHT22;23612;50.894;10.700;2024-03-22T03:15:56;7.00;99.90
20528;DHT22;23612;50.894;10.700;2024-03-22T03:18:21;7.00;99.90
20528;DHT22;23612;50.894;10.700;2024-03-22T03:20:47;7.00;99.90
20528;DHT22;23612;50.894;10.700;2024-03-22T03:23:12;7.10;99.90
20528;DHT22;23612;50.894;10.700;2024-03-22T03:25:38;7.00;99.90
20528;DHT22;23612;50.894;10.700;2024-03-22T03:28:03;7.00;99.90
20528;DHT22;23612;50.894;10.700;2024-03-22T03:30:29;7.10;99.90
20528;DHT22;23612;50.894;10.700;2024-03-22T03:32:54;7.10;99.90
20528;DHT22;23612;50.894;10.700;2024-03-22T03:35:20;7.00;99.90
20528;DHT22;23612;50.894;10.700;2024-03-22T03:37:45;7.00;99.90
20528;DHT22;23612;50.894;10.700;2024-03-22T03:40:11;7.00;99.90
20528;DHT22;23612;50.894;10.700;2024-03-22T03:42:36;6.90;99.90
20528;DHT22;23612;50.894;10.700;2024-03-22T03:45:02;7.00;99.90
20528;DHT22;23612;50.894;10.700;2024-03-22T03:47:27;6.90;99.90
20528;DHT22;23612;50.894;10.700;2024-03-22T03:49:53;6.90;99.90
20528;DHT22;23612;50.894;10.700;2024-03-22T03:52:18;6.90;99.90
20528;DHT22;23612;50.894;10.700;2024-03-22T03:54:44;7.00;99.90
20528;DHT22;23612;50.894;10.700;2024-03-22T03:57:09;7.10;99.90
20528;DHT22;23612;50.894;10.700;2024-03-22T03:59:35;7.10;99.90
20528;DHT22;23612;50.894;10.700;2024-03-22T04:02:00;7.20;99.90
20528;DHT22;23612;50.894;10.700;2024-03-22T04:04:26;7.30;99.90
20528;DHT22;23612;50.894;10.700;2024-03-22T04:06:51;7.40;99.90
20528;DHT22;23612;50.894;10.700;2024-03-22T04:09:17;7.50;99.90
20528;DHT22;23612;50.894;10.700;2024-03-22T04:11:42;7.60;99.90
20528;DHT22;23612;50.894;10.700;2024-03-22T04:14:09;7.60;99.90
20528;DHT22;23612;50.894;10.700;2024-03-22T04:16:34;7.60;99.90
20528;DHT22;23612;50.894;10.700;2024-03-22T04:19:00;7.60;99.90
20528;DHT22;23612;50.894;10.700;2024-03-22T04:21:25;7.70;99.90
20528;DHT22;23612;50.894;10.700;2024-03-22T04:23:51;7.70;99.90
20528;DHT22;23612;50.894;10.700;2024-03-22T04:26:17;7.70;99.90
20528;DHT22;23612;50.894;10.700;2024-03-22T04:28:42;7.70;99.90
20528;DHT22;23612;50.894;10.700;2024-03-22T04:31:08;7.80;99.90
20528;DHT22;23612;50.894;10.700;2024-03-22T04:33:35;7.80;99.90
20528;DHT22;23612;50.894;10.700;2024-03-22T04:36:01;7.80;99.90
20528;DHT22;23612;50.894;10.700;2024-03-22T04:38:28;7.90;99.90
20528;DHT22;23612;50.894;10.700;2024-03-22T04:40:54;7.90;99.90
20528;DHT22;23612;50.894;10.700;2024-03-22T04:43:20;8.00;99.90
20528;DHT22;23612;50.894;10.700;2024-03-22T04:45:46;7.90;99.90
20528;DHT22;23612;50.894;10.700;2024-03-22T04:48:18;8.00;99.90
20528;DHT22;23612;50.894;10.700;2024-03-22T04:50:45;8.00;99.90
20528;DHT22;23612;50.894;10.700;2024-03-22T04:53:10;8.10;99.90
20528;DHT22;23612;50.894;10.700;2024-03-22T04:55:36;8.10;99.90
20528;DHT22;23612;50.894;10.700;2024-03-22T04:58:03;8.10;99.90
20528;DHT22;23612;50.894;10.700;2024-03-22T05:00:28;8.10;99.90
20528;DHT22;23612;50.894;10.700;2024-03-22T05:02:54;8.20;99.90
20528;DHT22;23612;50.894;10.700;2024-03-22T05:05:20;8.20;99.90
20528;DHT22;23612;50.894;10.700;2024-03-22T05:07:45;8.30;99.90
20528;DHT22;23612;50.894;10.700;2024-03-22T05:10:12;8.30;99.90
20528;DHT22;23612;50.894;10.700;2024-03-22T05:12:37;8.30;99.90
20528;DHT22;23612;50.894;10.700;2024-03-22T05:15:03;8.30;99.90
20528;DHT22;23612;50.894;10.700;2024-03-22T05:17:30;8.30;99.90
20528;DHT22;23612;50.894;10.700;2024-03-22T05:19:58;8.40;99.90
20528;DHT22;23612;50.894;10.700;2024-03-22T05:22:23;8.40;99.90
20528;DHT22;23612;50.894;10.700;2024-03-22T05:24:49;8.40;99.90
20528;DHT22;23612;50.894;10.700;2024-03-22T05:27:14;8.40;99.90
20528;DHT22;23612;50.894;10.700;2024-03-22T05:29:40;8.50;99.90
20528;DHT22;23612;50.894;10.700;2024-03-22T05:32:05;8.50;99.90
20528;DHT22;23612;50.894;10.700;2024-03-22T05:34:31;8.60;99.90
20528;DHT22;23612;50.894;10.700;2024-03-22T05:36:57;8.50;99.90
20528;DHT22;23612;50.894;10.700;2024-03-22T05:39:22;8.60;99.90
20528;DHT22;23612;50.894;10.700;2024-03-22T05:41:47;8.60;99.90
20528;DHT22;23612;50.894;10.700;2024-03-22T05:44:13;8.60;99.90
20528;DHT22;23612;50.894;10.700;2024-03-22T05:46:38;8.60;99.90
20528;DHT22;23612;50.894;10.700;2024-03-22T05:49:04;8.70;99.90
20528;DHT22;23612;50.894;10.700;2024-03-22T05:51:30;8.70;99.90
20528;DHT22;23612;50.894;10.700;2024-03-22T05:53:56;8.70;99.90
20528;DHT22;23612;50.894;10.700;2024-03-22T05:56:22;8.70;99.90
20528;DHT22;23612;50.894;10.700;2024-03-22T05:58:48;8.80;99.90
20528;DHT22;23612;50.894;10.700;2024-03-22T06:01:13;8.80;99.90
20528;DHT22;23612;50.894;10.700;2024-03-22T06:03:39;8.90;99.90
20528;DHT22;23612;50.894;10.700;2024-03-22T06:06:04;8.80;99.90
20528;DHT22;23612;50.894;10.700;2024-03-22T06:08:30;8.90;99.90
20528;DHT22;23612;50.894;10.700;2024-03-22T06:10:59;8.90;99.90
20528;DHT22;23612;50.894;10.700;2024-03-22T06:13:25;8.90;99.90
20528;DHT22;23612;50.894;10.700;2024-03-22T06:15:51;8.90;99.90
20528;DHT22;23612;50.894;10.700;2024-03-22T06:18:16;8.90;99.90
20528;DHT22;23612;50.894;10.700;2024-03-22T06:20:42;9.00;99.90
20528;DHT22;23612;50.894;10.700;2024-03-22T06:23:09;9.00;99.90
20528;DHT22;23612;50.894;10.700;2024-03-22T06:25:34;9.00;99.90
20528;DHT22;23612;50.894;10.700;2024-03-22T06:28:00;9.00;99.90
20528;DHT22;23612;50.894;10.700;2024-03-22T06:30:25;9.00;99.90
20528;DHT22;23612;50.894;10.700;2024-03-22T06:32:51;9.10;99.90
20528;DHT22;23612;50.894;10.700;2024-03-22T06:35:17;9.10;99.90
20528;DHT22;23612;50.894;10.700;2024-03-22T06:37:42;9.00;99.90
20528;DHT22;23612;50.894;10.700;2024-03-22T06:40:08;9.10;99.90
20528;DHT22;23612;50.894;10.700;2024-03-22T06:42:35;9.10;99.90
20528;DHT22;23612;50.894;10.700;2024-03-22T06:45:00;9.10;99.90
20528;DHT22;23612;50.894;10.700;2024-03-22T06:47:26;9.20;99.90
20528;DHT22;23612;50.894;10.700;2024-03-22T06:49:51;9.10;99.90
20528;DHT22;23612;50.894;10.700;2024-03-22T06:52:16;9.20;99.90
20528;DHT22;23612;50.894;10.700;2024-03-22T06:54:43;9.20;99.90
20528;DHT22;23612;50.894;10.700;2024-03-22T06:57:09;9.20;99.90
20528;DHT22;23612;50.894;10.700;2024-03-22T06:59:34;9.40;99.90
20528;DHT22;23612;50.894;10.700;2024-03-22T07:02:00;9.40;99.90
20528;DHT22;23612;50.894;10.700;2024-03-22T07:04:25;9.50;99.90
20528;DHT22;23612;50.894;10.700;2024-03-22T07:06:51;9.60;99.90
20528;DHT22;23612;50.894;10.700;2024-03-22T07:09:16;9.70;99.90
20528;DHT22;23612;50.894;10.700;2024-03-22T07:11:42;9.80;99.90
20528;DHT22;23612;50.894;10.700;2024-03-22T07:14:07;9.90;99.90
20528;DHT22;23612;50.894;10.700;2024-03-22T07:16:33;9.90;99.90
20528;DHT22;23612;50.894;10.700;2024-03-22T07:18:58;10.00;99.90
20528;DHT22;23612;50.894;10.700;2024-03-22T07:21:24;10.10;99.90
20528;DHT22;23612;50.894;10.700;2024-03-22T07:23:50;10.20;99.90
20528;DHT22;23612;50.894;10.700;2024-03-22T07:26:15;10.30;99.90
20528;DHT22;23612;50.894;10.700;2024-03-22T07:28:41;10.30;99.90
20528;DHT22;23612;50.894;10.700;2024-03-22T07:31:06;10.30;99.90
20528;DHT22;23612;50.894;10.700;2024-03-22T07:33:32;10.30;99.90
20528;DHT22;23612;50.894;10.700;2024-03-22T07:36:02;10.30;99.90
20528;DHT22;23612;50.894;10.700;2024-03-22T07:38:27;10.30;99.90
20528;DHT22;23612;50.894;10.700;2024-03-22T07:40:53;10.40;99.90
20528;DHT22;23612;50.894;10.700;2024-03-22T07:43:18;10.50;99.90
20528;DHT22;23612;50.894;10.700;2024-03-22T07:45:44;10.50;99.90
20528;DHT22;23612;50.894;10.700;2024-03-22T07:48:09;10.60;99.90
20528;DHT22;23612;50.894;10.700;2024-03-22T07:50:36;10.60;99.90
20528;DHT22;23612;50.894;10.700;2024-03-22T07:53:01;10.50;99.90
20528;DHT22;23612;50.894;10.700;2024-03-22T07:55:27;10.50;99.90
20528;DHT22;23612;50.894;10.700;2024-03-22T07:57:52;10.50;99.90
20528;DHT22;23612;50.894;10.700;2024-03-22T08:00:18;10.50;99.90
20528;DHT22;23612;50.894;10.700;2024-03-22T08:02:43;10.40;99.90
20528;DHT22;23612;50.894;10.700;2024-03-22T08:05:09;10.40;99.90
20528;DHT22;23612;50.894;10.700;2024-03-22T08:07:34;10.40;99.90
20528;DHT22;23612;50.894;10.700;2024-03-22T08:10:00;10.50;99.90
20528;DHT22;23612;50.894;10.700;2024-03-22T08:12:27;10.40;99.90
20528;DHT22;23612;50.894;10.700;2024-03-22T08:14:53;10.40;99.90
20528;DHT22;23612;50.894;10.700;2024-03-22T08:17:18;10.50;99.90
20528;DHT22;23612;50.894;10.700;2024-03-22T08:19:44;10.60;99.90
20528;DHT22;23612;50.894;10.700;2024-03-22T08:22:10;10.70;99.90
20528;DHT22;23612;50.894;10.700;2024-03-22T08:24:35;10.70;99.90
20528;DHT22;23612;50.894;10.700;2024-03-22T08:27:01;10.80;99.90
20528;DHT22;23612;50.894;10.700;2024-03-22T08:29:26;10.90;99.90
20528;DHT22;23612;50.894;10.700;2024-03-22T08:31:52;11.00;99.90
20528;DHT22;23612;50.894;10.700;2024-03-22T08:34:18;11.10;99.90
20528;DHT22;23612;50.894;10.700;2024-03-22T08:36:44;11.20;99.90
20528;DHT22;23612;50.894;10.700;2024-03-22T08:39:09;11.30;99.90
20528;DHT22;23612;50.894;10.700;2024-03-22T08:41:39;11.50;99.90
20528;DHT22;23612;50.894;10.700;2024-03-22T08:44:04;11.60;99.90
20528;DHT22;23612;50.894;10.700;2024-03-22T08:46:30;11.80;99.90
20528;DHT22;23612;50.894;10.700;2024-03-22T08:48:57;11.90;99.90
20528;DHT22;23612;50.894;10.700;2024-03-22T08:51:23;12.10;99.90
20528;DHT22;23612;50.894;10.700;2024-03-22T08:53:48;12.20;99.90
20528;DHT22;23612;50.894;10.700;2024-03-22T08:56:14;12.30;99.90
20528;DHT22;23612;50.894;10.700;2024-03-22T08:58:39;12.60;99.90
20528;DHT22;23612;50.894;10.700;2024-03-22T09:01:05;12.80;99.90
20528;DHT22;23612;50.894;10.700;2024-03-22T09:03:31;13.00;99.90
20528;DHT22;23612;50.894;10.700;2024-03-22T09:05:56;13.10;99.90
20528;DHT22;23612;50.894;10.700;2024-03-22T09:08:22;13.30;99.90
20528;DHT22;23612;50.894;10.700;2024-03-22T09:10:48;13.50;99.90
20528;DHT22;23612;50.894;10.700;2024-03-22T09:13:13;13.60;99.90
20528;DHT22;23612;50.894;10.700;2024-03-22T09:15:39;13.80;99.90
20528;DHT22;23612;50.894;10.700;2024-03-22T09:18:05;13.90;99.90
20528;DHT22;23612;50.894;10.700;2024-03-22T09:20:30;14.00;99.90
20528;DHT22;23612;50.894;10.700;2024-03-22T09:22:56;14.00;99.90
20528;DHT22;23612;50.894;10.700;2024-03-22T09:25:23;14.10;99.90
20528;DHT22;23612;50.894;10.700;2024-03-22T09:27:48;14.20;99.90
20528;DHT22;23612;50.894;10.700;2024-03-22T09:30:14;14.10;99.90
20528;DHT22;23612;50.894;10.700;2024-03-22T09:32:40;13.90;99.90
20528;DHT22;23612;50.894;10.700;2024-03-22T09:35:06;13.90;99.90
20528;DHT22;23612;50.894;10.700;2024-03-22T09:37:31;14.00;99.90
20528;DHT22;23612;50.894;10.700;2024-03-22T09:39:58;14.10;99.90
20528;DHT22;23612;50.894;10.700;2024-03-22T09:42:25;14.30;99.90
20528;DHT22;23612;50.894;10.700;2024-03-22T09:44:51;14.40;99.90
20528;DHT22;23612;50.894;10.700;2024-03-22T09:47:18;14.60;99.90
20528;DHT22;23612;50.894;10.700;2024-03-22T09:49:44;14.60;99.90
20528;DHT22;23612;50.894;10.700;2024-03-22T09:52:14;14.60;99.90
20528;DHT22;23612;50.894;10.700;2024-03-22T09:54:43;14.60;99.90
20528;DHT22;23612;50.894;10.700;2024-03-22T09:57:13;14.70;99.90
20528;DHT22;23612;50.894;10.700;2024-03-22T09:59:41;14.60;99.90
20528;DHT22;23612;50.894;10.700;2024-03-22T10:02:09;14.70;99.90
20528;DHT22;23612;50.894;10.700;2024-03-22T10:04:36;14.70;99.90
20528;DHT22;23612;50.894;10.700;2024-03-22T10:07:02;14.70;99.90
20528;DHT22;23612;50.894;10.700;2024-03-22T10:09:32;14.60;99.90
20528;DHT22;23612;50.894;10.700;2024-03-22T10:11:58;14.50;99.90
20528;DHT22;23612;50.894;10.700;2024-03-22T10:14:23;14.50;99.90
20528;DHT22;23612;50.894;10.700;2024-03-22T10:16:52;14.60;99.90
20528;DHT22;23612;50.894;10.700;2024-03-22T10:19:21;14.50;99.90
20528;DHT22;23612;50.894;10.700;2024-03-22T10:22:05;14.60;99.90
20528;DHT22;23612;50.894;10.700;2024-03-22T10:24:31;14.70;99.90
20528;DHT22;23612;50.894;10.700;2024-03-22T10:26:58;14.70;99.90
20528;DHT22;23612;50.894;10.700;2024-03-22T10:29:24;14.70;99.90
20528;DHT22;23612;50.894;10.700;2024-03-22T10:31:54;14.70;99.90
20528;DHT22;23612;50.894;10.700;2024-03-22T10:34:21;14.70;99.90
20528;DHT22;23612;50.894;10.700;2024-03-22T10:36:47;14.80;99.90
20528;DHT22;23612;50.894;10.700;2024-03-22T10:39:18;14.90;99.90
20528;DHT22;23612;50.894;10.700;2024-03-22T10:41:47;15.10;99.90
20528;DHT22;23612;50.894;10.700;2024-03-22T10:44:13;15.40;99.90
20528;DHT22;23612;50.894;10.700;2024-03-22T10:46:44;15.60;99.90
20528;DHT22;23612;50.894;10.700;2024-03-22T10:49:16;15.80;99.90
20528;DHT22;23612;50.894;10.700;2024-03-22T10:51:50;16.00;99.90
20528;DHT22;23612;50.894;10.700;2024-03-22T10:54:20;16.20;99.90
20528;DHT22;23612;50.894;10.700;2024-03-22T10:56:46;16.40;99.90
20528;DHT22;23612;50.894;10.700;2024-03-22T10:59:14;16.50;99.90
20528;DHT22;23612;50.894;10.700;2024-03-22T11:01:45;16.70;99.90
20528;DHT22;23612;50.894;10.700;2024-03-22T11:04:11;16.90;99.90
20528;DHT22;23612;50.894;10.700;2024-03-22T11:06:37;17.20;99.90
20528;DHT22;23612;50.894;10.700;2024-03-22T11:09:02;17.30;99.90
20528;DHT22;23612;50.894;10.700;2024-03-22T11:11:29;17.60;99.90
20528;DHT22;23612;50.894;10.700;2024-03-22T11:13:56;17.40;99.90
20528;DHT22;23612;50.894;10.700;2024-03-22T11:16:22;17.10;99.90
20528;DHT22;23612;50.894;10.700;2024-03-22T11:18:48;16.60;99.90
20528;DHT22;23612;50.894;10.700;2024-03-22T11:21:14;16.30;99.90
20528;DHT22;23612;50.894;10.700;2024-03-22T11:23:40;15.90;99.90
20528;DHT22;23612;50.894;10.700;2024-03-22T11:26:05;15.60;99.90
20528;DHT22;23612;50.894;10.700;2024-03-22T11:28:33;15.40;99.90
20528;DHT22;23612;50.894;10.700;2024-03-22T11:30:59;15.30;99.90
20528;DHT22;23612;50.894;10.700;2024-03-22T11:33:24;15.20;99.90
20528;DHT22;23612;50.894;10.700;2024-03-22T11:35:52;15.00;99.90
20528;DHT22;23612;50.894;10.700;2024-03-22T11:38:18;14.80;99.90
20528;DHT22;23612;50.894;10.700;2024-03-22T11:40:44;14.80;99.90
20528;DHT22;23612;50.894;10.700;2024-03-22T11:43:11;14.70;99.90
20528;DHT22;23612;50.894;10.700;2024-03-22T11:45:37;14.70;99.90
20528;DHT22;23612;50.894;10.700;2024-03-22T11:48:03;14.60;99.90
20528;DHT22;23612;50.894;10.700;2024-03-22T11:50:29;14.50;99.90
20528;DHT22;23612;50.894;10.700;2024-03-22T11:52:56;14.50;99.90
20528;DHT22;23612;50.894;10.700;2024-03-22T11:55:21;14.50;99.90
20528;DHT22;23612;50.894;10.700;2024-03-22T11:57:50;14.50;99.90
20528;DHT22;23612;50.894;10.700;2024-03-22T12:00:18;14.60;99.90
20528;DHT22;23612;50.894;10.700;2024-03-22T12:02:44;14.60;99.90
20528;DHT22;23612;50.894;10.700;2024-03-22T12:05:10;14.60;99.90
20528;DHT22;23612;50.894;10.700;2024-03-22T12:07:36;14.60;99.90
20528;DHT22;23612;50.894;10.700;2024-03-22T12:10:02;14.40;99.90
20528;DHT22;23612;50.894;10.700;2024-03-22T12:12:28;14.40;99.90
20528;DHT22;23612;50.894;10.700;2024-03-22T12:14:54;14.40;99.90
20528;DHT22;23612;50.894;10.700;2024-03-22T12:17:20;14.50;99.90
20528;DHT22;23612;50.894;10.700;2024-03-22T12:19:45;14.60;99.90
20528;DHT22;23612;50.894;10.700;2024-03-22T12:22:11;14.70;99.90
20528;DHT22;23612;50.894;10.700;2024-03-22T12:24:36;14.70;99.90
20528;DHT22;23612;50.894;10.700;2024-03-22T12:27:02;14.70;99.90
20528;DHT22;23612;50.894;10.700;2024-03-22T12:29:28;14.70;99.90
20528;DHT22;23612;50.894;10.700;2024-03-22T12:31:53;14.70;99.90
20528;DHT22;23612;50.894;10.700;2024-03-22T12:34:19;14.70;99.90
20528;DHT22;23612;50.894;10.700;2024-03-22T12:36:44;14.70;99.90
20528;DHT22;23612;50.894;10.700;2024-03-22T12:39:10;14.70;99.90
20528;DHT22;23612;50.894;10.700;2024-03-22T12:41:36;14.60;99.90
20528;DHT22;23612;50.894;10.700;2024-03-22T12:44:02;14.60;99.90
20528;DHT22;23612;50.894;10.700;2024-03-22T12:46:28;14.60;99.90
20528;DHT22;23612;50.894;10.700;2024-03-22T12:48:54;14.50;99.90
20528;DHT22;23612;50.894;10.700;2024-03-22T12:51:20;14.40;99.90
20528;DHT22;23612;50.894;10.700;2024-03-22T12:53:46;14.50;99.90
20528;DHT22;23612;50.894;10.700;2024-03-22T12:56:11;14.50;99.90
20528;DHT22;23612;50.894;10.700;2024-03-22T12:58:37;14.50;99.90
20528;DHT22;23612;50.894;10.700;2024-03-22T13:01:02;14.50;99.90
20528;DHT22;23612;50.894;10.700;2024-03-22T13:03:29;14.50;99.90
20528;DHT22;23612;50.894;10.700;2024-03-22T13:05:55;14.70;99.90
20528;DHT22;23612;50.894;10.700;2024-03-22T13:08:20;14.80;99.90
20528;DHT22;23612;50.894;10.700;2024-03-22T13:10:46;15.00;99.90
20528;DHT22;23612;50.894;10.700;2024-03-22T13:13:13;15.10;99.90
20528;DHT22;23612;50.894;10.700;2024-03-22T13:15:41;15.20;99.90
20528;DHT22;23612;50.894;10.700;2024-03-22T13:18:07;15.10;99.90
20528;DHT22;23612;50.894;10.700;2024-03-22T13:20:34;15.30;99.90
20528;DHT22;23612;50.894;10.700;2024-03-22T13:22:59;15.50;99.90
20528;DHT22;23612;50.894;10.700;2024-03-22T13:25:26;15.90;99.90
20528;DHT22;23612;50.894;10.700;2024-03-22T13:27:51;16.10;99.90
20528;DHT22;23612;50.894;10.700;2024-03-22T13:30:17;16.10;99.90
20528;DHT22;23612;50.894;10.700;2024-03-22T13:32:42;15.90;99.90
20528;DHT22;23612;50.894;10.700;2024-03-22T13:35:08;15.90;99.90
20528;DHT22;23612;50.894;10.700;2024-03-22T13:37:34;15.70;99.90
20528;DHT22;23612;50.894;10.700;2024-03-22T13:40:00;15.70;99.90
20528;DHT22;23612;50.894;10.700;2024-03-22T13:42:26;15.60;99.90
20528;DHT22;23612;50.894;10.700;2024-03-22T13:44:51;15.70;99.90
20528;DHT22;23612;50.894;10.700;2024-03-22T13:47:17;15.80;99.90
20528;DHT22;23612;50.894;10.700;2024-03-22T13:49:44;16.00;99.90
20528;DHT22;23612;50.894;10.700;2024-03-22T13:52:10;16.10;99.90
20528;DHT22;23612;50.894;10.700;2024-03-22T13:54:36;16.10;99.90
20528;DHT22;23612;50.894;10.700;2024-03-22T13:57:02;16.10;99.90
20528;DHT22;23612;50.894;10.700;2024-03-22T13:59:28;16.10;99.90
20528;DHT22;23612;50.894;10.700;2024-03-22T14:01:54;16.00;99.90
20528;DHT22;23612;50.894;10.700;2024-03-22T14:04:19;16.10;99.90
20528;DHT22;23612;50.894;10.700;2024-03-22T14:06:45;16.00;99.90
20528;DHT22;23612;50.894;10.700;2024-03-22T14:09:11;15.90;99.90
20528;DHT22;23612;50.894;10.700;2024-03-22T14:11:39;15.90;99.90
20528;DHT22;23612;50.894;10.700;2024-03-22T14:14:04;15.90;99.90
20528;DHT22;23612;50.894;10.700;2024-03-22T14:16:30;15.80;99.90
20528;DHT22;23612;50.894;10.700;2024-03-22T14:18:56;15.70;99.90
20528;DHT22;23612;50.894;10.700;2024-03-22T14:21:21;15.60;99.90
20528;DHT22;23612;50.894;10.700;2024-03-22T14:23:47;15.50;99.90
20528;DHT22;23612;50.894;10.700;2024-03-22T14:26:13;15.50;99.90
20528;DHT22;23612;50.894;10.700;2024-03-22T14:28:39;15.40;99.90
20528;DHT22;23612;50.894;10.700;2024-03-22T14:31:06;15.30;99.90
20528;DHT22;23612;50.894;10.700;2024-03-22T14:33:36;15.20;99.90
20528;DHT22;23612;50.894;10.700;2024-03-22T14:36:03;15.20;99.90
20528;DHT22;23612;50.894;10.700;2024-03-22T14:38:29;15.20;99.90
20528;DHT22;23612;50.894;10.700;2024-03-22T14:40:55;15.20;99.90
20528;DHT22;23612;50.894;10.700;2024-03-22T14:43:21;15.10;99.90
20528;DHT22;23612;50.894;10.700;2024-03-22T14:45:47;15.10;99.90
20528;DHT22;23612;50.894;10.700;2024-03-22T14:48:12;15.00;99.90
20528;DHT22;23612;50.894;10.700;2024-03-22T14:50:37;15.10;99.90
20528;DHT22;23612;50.894;10.700;2024-03-22T14:53:06;15.10;99.90
20528;DHT22;23612;50.894;10.700;2024-03-22T14:55:32;15.00;99.90
20528;DHT22;23612;50.894;10.700;2024-03-22T14:57:57;15.00;99.90
20528;DHT22;23612;50.894;10.700;2024-03-22T15:00:23;14.90;99.90
20528;DHT22;23612;50.894;10.700;2024-03-22T15:02:52;14.90;99.90
20528;DHT22;23612;50.894;10.700;2024-03-22T15:05:17;14.90;99.90
20528;DHT22;23612;50.894;10.700;2024-03-22T15:07:43;14.90;99.90
20528;DHT22;23612;50.894;10.700;2024-03-22T15:10:09;14.90;99.90
20528;DHT22;23612;50.894;10.700;2024-03-22T15:12:34;15.00;99.90
20528;DHT22;23612;50.894;10.700;2024-03-22T15:15:00;15.10;99.90